Time;durP1;ratioP1;P1;durP2;ratioP2;P2;SDS_P1;SDS_P2;PMS_P1;PMS_P2;Temp;Humidity;BMP_temperature;BMP_pressure;BME280_temperature;BME280_humidity;BME280_pressure;Samples;Min_cycle;Max_cycle;Signal;HPM_P1;HPM_P2
2021/06/27 00:01:12;;;;;;;64.32;36.85;;;;;;;;;;4422530;32;20153;-71
2021/06/27 00:03:37;;;;;;;72.68;40.60;;;;;;;;;;4420945;32;20126;-71
2021/06/27 00:06:03;;;;;;;62.83;36.97;;;;;;;;;;4421581;32;20152;-71
2021/06/27 00:08:28;;;;;;;62.97;37.95;;;;;;;;;;4432851;32;20462;-71
2021/06/27 00:10:57;;;;;;;64.72;37.28;;;;;;;;;;4421684;32;20578;-71
2021/06/27 00:13:22;;;;;;;64.03;37.17;;;;;;;;;;4422177;32;20328;-70
2021/06/27 00:15:48;;;;;;;59.88;36.10;;;;;;;;;;4423214;32;20594;-70
2021/06/27 00:18:15;;;;;;;61.17;35.88;;;;;;;;;;4435590;32;20511;-71
2021/06/27 00:20:44;;;;;;;68.65;38.65;;;;;;;;;;4435825;32;20165;-71
2021/06/27 00:23:11;;;;;;;69.85;40.63;;;;;;;;;;4437646;32;20133;-70
2021/06/27 00:25:36;;;;;;;66.65;39.97;;;;;;;;;;4437152;32;20149;-71
2021/06/27 00:28:02;;;;;;;68.28;39.55;;;;;;;;;;4435777;32;20503;-70
2021/06/27 00:30:28;;;;;;;72.37;39.60;;;;;;;;;;4437217;32;20502;-70
2021/06/27 00:32:54;;;;;;;64.18;38.97;;;;;;;;;;4436606;32;20125;-71
2021/06/27 00:35:20;;;;;;;65.35;39.10;;;;;;;;;;4435611;32;20523;-71
2021/06/27 00:37:45;;;;;;;81.18;44.35;;;;;;;;;;4435549;32;20459;-71
2021/06/27 00:40:12;;;;;;;71.15;41.10;;;;;;;;;;4436826;32;20181;-71
2021/06/27 00:42:38;;;;;;;70.07;40.33;;;;;;;;;;4437083;32;20149;-71
2021/06/27 00:45:04;;;;;;;71.75;40.95;;;;;;;;;;4435211;32;20188;-71
2021/06/27 00:47:30;;;;;;;65.68;38.58;;;;;;;;;;4437489;32;20159;-70
2021/06/27 00:49:56;;;;;;;68.37;39.53;;;;;;;;;;4435079;32;20157;-71
2021/06/27 00:52:21;;;;;;;65.65;38.78;;;;;;;;;;4436963;32;20141;-70
2021/06/27 00:54:46;;;;;;;79.80;44.25;;;;;;;;;;4422683;32;20153;-71
2021/06/27 00:57:11;;;;;;;67.30;39.80;;;;;;;;;;4435566;32;20156;-71
2021/06/27 00:59:37;;;;;;;76.28;43.28;;;;;;;;;;4436436;32;20270;-71
2021/06/27 01:02:03;;;;;;;71.45;42.75;;;;;;;;;;4421092;32;20157;-71
2021/06/27 01:04:28;;;;;;;80.07;44.00;;;;;;;;;;4436755;32;20615;-72
2021/06/27 01:06:53;;;;;;;78.75;42.40;;;;;;;;;;4436575;32;20145;-72
2021/06/27 01:09:18;;;;;;;66.22;39.78;;;;;;;;;;4437469;32;20499;-72
2021/06/27 01:11:43;;;;;;;73.00;42.35;;;;;;;;;;4435635;32;20368;-71
2021/06/27 01:14:08;;;;;;;74.90;42.55;;;;;;;;;;4437183;32;20255;-71
2021/06/27 01:16:37;;;;;;;71.37;42.05;;;;;;;;;;4436465;32;20460;-71
2021/06/27 01:19:02;;;;;;;65.62;40.00;;;;;;;;;;4435145;32;20193;-70
2021/06/27 01:21:27;;;;;;;70.05;41.80;;;;;;;;;;4436478;32;20539;-71
2021/06/27 01:23:53;;;;;;;70.30;41.23;;;;;;;;;;4436341;32;20535;-71
2021/06/27 01:26:18;;;;;;;72.03;40.22;;;;;;;;;;4436596;32;20221;-71
2021/06/27 01:28:43;;;;;;;63.03;38.83;;;;;;;;;;4435403;32;20130;-70
2021/06/27 01:31:08;;;;;;;67.62;40.38;;;;;;;;;;4437259;32;20126;-71
2021/06/27 01:33:34;;;;;;;73.32;44.45;;;;;;;;;;4434867;32;20245;-70
2021/06/27 01:35:59;;;;;;;70.97;40.40;;;;;;;;;;4438244;32;20153;-71
2021/06/27 01:38:24;;;;;;;68.05;41.63;;;;;;;;;;4438231;32;20129;-71
2021/06/27 01:40:50;;;;;;;64.75;38.70;;;;;;;;;;4424175;32;20256;-71
2021/06/27 01:43:23;;;;;;;68.45;40.97;;;;;;;;;;4438191;32;20138;-72
2021/06/27 01:45:51;;;;;;;71.62;43.10;;;;;;;;;;4439273;32;20133;-72
2021/06/27 01:48:16;;;;;;;72.12;41.95;;;;;;;;;;4437503;32;20168;-72
2021/06/27 01:50:42;;;;;;;64.00;39.42;;;;;;;;;;4439267;32;20208;-71
2021/06/27 01:53:08;;;;;;;67.68;41.65;;;;;;;;;;4437815;32;20175;-71
2021/06/27 01:55:34;;;;;;;66.05;40.92;;;;;;;;;;4438215;32;20228;-72
2021/06/27 01:57:59;;;;;;;66.87;40.70;;;;;;;;;;4425242;32;20153;-71
2021/06/27 02:00:26;;;;;;;60.72;39.70;;;;;;;;;;4439456;32;20176;-71
2021/06/27 02:02:51;;;;;;;65.40;39.00;;;;;;;;;;4437791;32;20192;-71
2021/06/27 02:05:16;;;;;;;63.20;39.92;;;;;;;;;;4439073;32;20145;-71
2021/06/27 02:07:42;;;;;;;66.85;40.88;;;;;;;;;;4424083;32;20188;-71
2021/06/27 02:10:08;;;;;;;59.78;38.72;;;;;;;;;;4423078;32;20222;-71
2021/06/27 02:12:33;;;;;;;67.00;40.22;;;;;;;;;;4423070;32;20166;-71
2021/06/27 02:14:59;;;;;;;62.13;37.58;;;;;;;;;;4438184;32;20160;-71
2021/06/27 02:17:24;;;;;;;64.37;40.83;;;;;;;;;;4439438;32;20228;-70
2021/06/27 02:19:51;;;;;;;59.87;38.50;;;;;;;;;;4424698;32;20257;-71
2021/06/27 02:22:17;;;;;;;62.58;36.50;;;;;;;;;;4423135;32;20306;-72
2021/06/27 02:24:42;;;;;;;73.25;43.03;;;;;;;;;;4437098;32;20130;-72
2021/06/27 02:27:07;;;;;;;58.83;38.45;;;;;;;;;;4437497;32;20130;-72
2021/06/27 02:29:32;;;;;;;71.10;42.75;;;;;;;;;;4424820;32;20306;-72
2021/06/27 02:31:59;;;;;;;64.55;39.17;;;;;;;;;;4422977;32;20183;-72
2021/06/27 02:34:24;;;;;;;63.75;40.97;;;;;;;;;;4438531;32;20649;-71
2021/06/27 02:36:49;;;;;;;62.80;37.67;;;;;;;;;;4437312;32;20161;-72
2021/06/27 02:39:14;;;;;;;67.43;43.30;;;;;;;;;;4436946;32;20229;-71
2021/06/27 02:41:40;;;;;;;61.00;39.78;;;;;;;;;;4438925;32;20204;-72
2021/06/27 02:44:05;;;;;;;60.58;36.47;;;;;;;;;;4424506;32;20222;-71
2021/06/27 02:46:30;;;;;;;60.90;38.55;;;;;;;;;;4436130;32;20165;-72
2021/06/27 02:48:56;;;;;;;69.97;42.08;;;;;;;;;;4422874;32;20154;-72
2021/06/27 02:51:21;;;;;;;64.20;40.85;;;;;;;;;;4438335;32;20164;-71
2021/06/27 02:53:46;;;;;;;62.95;37.50;;;;;;;;;;4437228;32;20152;-71
2021/06/27 02:56:11;;;;;;;61.63;39.90;;;;;;;;;;4437071;32;20130;-71
2021/06/27 02:58:37;;;;;;;62.28;41.20;;;;;;;;;;4437085;32;20226;-72
2021/06/27 03:01:03;;;;;;;66.78;41.10;;;;;;;;;;4438512;32;20254;-72
2021/06/27 03:03:28;;;;;;;74.40;44.03;;;;;;;;;;4424351;32;20176;-72
2021/06/27 03:05:53;;;;;;;70.70;42.58;;;;;;;;;;4436731;32;20133;-72
2021/06/27 03:08:18;;;;;;;64.45;42.17;;;;;;;;;;4423031;32;20169;-71
2021/06/27 03:10:43;;;;;;;64.68;41.65;;;;;;;;;;4437786;32;20225;-71
2021/06/27 03:13:09;;;;;;;71.25;42.53;;;;;;;;;;4423241;32;20298;-71
2021/06/27 03:15:34;;;;;;;61.37;39.28;;;;;;;;;;4436770;32;20221;-71
2021/06/27 03:17:59;;;;;;;68.43;42.17;;;;;;;;;;4424302;32;20153;-71
2021/06/27 03:20:24;;;;;;;61.40;39.53;;;;;;;;;;4436527;32;20221;-72
2021/06/27 03:22:49;;;;;;;59.75;39.65;;;;;;;;;;4424087;32;20303;-72
2021/06/27 03:25:15;;;;;;;61.78;38.40;;;;;;;;;;4424033;32;20176;-71
2021/06/27 03:27:40;;;;;;;65.62;40.67;;;;;;;;;;4436515;32;20225;-71
2021/06/27 03:30:06;;;;;;;66.57;41.33;;;;;;;;;;4436634;32;20435;-72
2021/06/27 03:32:31;;;;;;;65.28;42.28;;;;;;;;;;4438132;32;20275;-71
2021/06/27 03:34:56;;;;;;;63.38;40.40;;;;;;;;;;4423920;32;20188;-71
2021/06/27 03:37:22;;;;;;;75.57;46.17;;;;;;;;;;4436253;32;20141;-71
2021/06/27 03:39:47;;;;;;;60.13;39.20;;;;;;;;;;4423069;32;20283;-71
2021/06/27 03:42:13;;;;;;;69.80;43.08;;;;;;;;;;4423910;32;20760;-71
2021/06/27 03:44:38;;;;;;;69.65;43.63;;;;;;;;;;4436510;32;20211;-71
2021/06/27 03:47:03;;;;;;;77.00;46.35;;;;;;;;;;4437502;32;20240;-71
2021/06/27 03:49:28;;;;;;;65.35;41.10;;;;;;;;;;4436729;32;20530;-72
2021/06/27 03:51:53;;;;;;;61.63;39.15;;;;;;;;;;4437700;32;20509;-72
2021/06/27 03:54:19;;;;;;;65.28;40.63;;;;;;;;;;4421920;32;20260;-71
2021/06/27 03:56:44;;;;;;;66.50;41.73;;;;;;;;;;4423425;32;20161;-70
2021/06/27 03:59:09;;;;;;;72.40;46.28;;;;;;;;;;4436063;32;20336;-71
2021/06/27 04:01:34;;;;;;;77.53;45.22;;;;;;;;;;4435715;32;20527;-71
2021/06/27 04:04:00;;;;;;;68.65;43.00;;;;;;;;;;4435702;32;20130;-71
2021/06/27 04:06:26;;;;;;;68.57;43.90;;;;;;;;;;4435603;32;20261;-72
2021/06/27 04:08:51;;;;;;;61.13;38.75;;;;;;;;;;4435921;32;20274;-70
2021/06/27 04:11:16;;;;;;;69.07;43.00;;;;;;;;;;4435573;32;20186;-71
2021/06/27 04:13:41;;;;;;;72.83;46.33;;;;;;;;;;4435718;32;20221;-71
2021/06/27 04:16:07;;;;;;;60.55;38.75;;;;;;;;;;4436656;32;20622;-71
2021/06/27 04:18:32;;;;;;;62.10;41.33;;;;;;;;;;4421748;32;20220;-71
2021/06/27 04:20:58;;;;;;;65.78;41.78;;;;;;;;;;4438013;32;20134;-71
2021/06/27 04:23:24;;;;;;;60.22;40.05;;;;;;;;;;4437094;32;20133;-71
2021/06/27 04:25:49;;;;;;;55.50;38.00;;;;;;;;;;4437566;32;20131;-71
2021/06/27 04:28:15;;;;;;;61.50;41.42;;;;;;;;;;4421467;32;20184;-71
2021/06/27 04:30:41;;;;;;;61.58;39.17;;;;;;;;;;4437127;32;20130;-72
2021/06/27 04:33:06;;;;;;;57.85;37.42;;;;;;;;;;4437516;32;20125;-71
2021/06/27 04:35:33;;;;;;;53.92;37.15;;;;;;;;;;4422321;32;20169;-71
2021/06/27 04:37:59;;;;;;;58.85;41.42;;;;;;;;;;4435591;32;20133;-71
2021/06/27 04:40:24;;;;;;;60.75;38.85;;;;;;;;;;4437007;32;20133;-70
2021/06/27 04:42:49;;;;;;;59.15;39.28;;;;;;;;;;4437520;32;20125;-70
2021/06/27 04:45:14;;;;;;;56.17;39.03;;;;;;;;;;4421123;32;20180;-70
2021/06/27 04:47:40;;;;;;;54.30;37.42;;;;;;;;;;4435510;32;20622;-70
2021/06/27 04:50:05;;;;;;;56.83;37.92;;;;;;;;;;4437328;32;20160;-71
2021/06/27 04:52:32;;;;;;;52.13;36.78;;;;;;;;;;4437463;32;20232;-71
2021/06/27 04:54:57;;;;;;;53.58;36.90;;;;;;;;;;4436890;32;20134;-70
2021/06/27 04:57:22;;;;;;;56.85;39.92;;;;;;;;;;4421161;32;20217;-71
2021/06/27 04:59:47;;;;;;;61.15;39.65;;;;;;;;;;4435642;32;20229;-70
2021/06/27 05:02:12;;;;;;;53.53;36.50;;;;;;;;;;4422840;32;20253;-70
2021/06/27 05:04:38;;;;;;;56.67;37.60;;;;;;;;;;4435159;32;20134;-72
2021/06/27 05:07:03;;;;;;;60.05;40.03;;;;;;;;;;4435278;32;20575;-71
2021/06/27 05:09:28;;;;;;;51.25;37.05;;;;;;;;;;4436151;32;20546;-71
2021/06/27 05:11:53;;;;;;;51.40;38.40;;;;;;;;;;4439826;32;20126;-71
2021/06/27 05:14:18;;;;;;;54.60;37.33;;;;;;;;;;4425851;32;20260;-71
2021/06/27 05:16:43;;;;;;;56.97;39.97;;;;;;;;;;4438373;32;20251;-71
2021/06/27 05:19:09;;;;;;;53.33;39.30;;;;;;;;;;4438826;32;20220;-70
2021/06/27 05:21:34;;;;;;;54.55;38.58;;;;;;;;;;4423988;32;20273;-71
2021/06/27 05:23:59;;;;;;;58.28;40.38;;;;;;;;;;4434376;32;20345;-70
2021/06/27 05:26:24;;;;;;;52.25;36.70;;;;;;;;;;4424812;32;20145;-70
2021/06/27 05:28:49;;;;;;;52.95;35.13;;;;;;;;;;4415321;32;20337;-70
2021/06/27 05:31:14;;;;;;;58.15;39.22;;;;;;;;;;4422575;32;20195;-71
2021/06/27 05:33:40;;;;;;;53.63;37.33;;;;;;;;;;4409052;32;20158;-71
2021/06/27 05:36:05;;;;;;;53.25;36.67;;;;;;;;;;4423862;32;20236;-71
2021/06/27 05:38:30;;;;;;;53.67;37.33;;;;;;;;;;4422616;32;20157;-71
2021/06/27 05:40:55;;;;;;;52.13;38.28;;;;;;;;;;4410087;32;20158;-70
2021/06/27 05:43:20;;;;;;;56.55;37.78;;;;;;;;;;4425328;32;20261;-71
2021/06/27 05:45:46;;;;;;;49.05;35.95;;;;;;;;;;4437833;32;20606;-70
2021/06/27 05:48:11;;;;;;;46.75;35.05;;;;;;;;;;4424736;32;20227;-71
2021/06/27 05:50:36;;;;;;;50.97;37.30;;;;;;;;;;4438492;32;20160;-71
2021/06/27 05:53:01;;;;;;;50.28;36.58;;;;;;;;;;4437243;32;20275;-71
2021/06/27 05:55:26;;;;;;;47.30;34.30;;;;;;;;;;4437786;32;20156;-71
2021/06/27 05:57:52;;;;;;;45.83;35.03;;;;;;;;;;4437176;32;20175;-71
2021/06/27 06:00:19;;;;;;;48.60;35.67;;;;;;;;;;4437304;32;20499;-71
2021/06/27 06:02:44;;;;;;;49.80;36.30;;;;;;;;;;4433316;32;20197;-71
2021/06/27 06:05:09;;;;;;;42.60;31.27;;;;;;;;;;4421774;32;20558;-71
2021/06/27 06:07:35;;;;;;;45.20;34.17;;;;;;;;;;4422749;32;20614;-71
2021/06/27 06:10:00;;;;;;;46.13;32.50;;;;;;;;;;4424257;32;20127;-71
2021/06/27 06:12:25;;;;;;;41.00;29.80;;;;;;;;;;4428708;32;20679;-71
2021/06/27 06:14:50;;;;;;;42.85;32.55;;;;;;;;;;4434320;32;20263;-71
2021/06/27 06:17:15;;;;;;;42.92;32.42;;;;;;;;;;4438773;32;20240;-72
2021/06/27 06:19:41;;;;;;;42.17;30.20;;;;;;;;;;4439156;32;20278;-71
2021/06/27 06:22:06;;;;;;;41.42;30.60;;;;;;;;;;4435485;32;20241;-71
2021/06/27 06:24:31;;;;;;;43.13;32.95;;;;;;;;;;4438433;32;20138;-70
2021/06/27 06:26:56;;;;;;;40.87;30.07;;;;;;;;;;4422817;32;20235;-71
2021/06/27 06:29:21;;;;;;;40.80;29.80;;;;;;;;;;4424046;32;20248;-71
2021/06/27 06:31:47;;;;;;;43.93;31.80;;;;;;;;;;4434705;32;20260;-71
2021/06/27 06:34:12;;;;;;;36.67;28.27;;;;;;;;;;4436292;32;20224;-71
2021/06/27 06:36:37;;;;;;;40.65;29.40;;;;;;;;;;4437375;32;20137;-72
2021/06/27 06:39:03;;;;;;;38.40;28.25;;;;;;;;;;4438541;32;20196;-71
2021/06/27 06:41:28;;;;;;;38.05;29.23;;;;;;;;;;4438439;32;20552;-71
2021/06/27 06:43:55;;;;;;;41.92;29.45;;;;;;;;;;4436790;32;20148;-71
2021/06/27 06:46:20;;;;;;;38.97;29.83;;;;;;;;;;4424136;32;20488;-71
2021/06/27 06:48:45;;;;;;;36.95;27.33;;;;;;;;;;4436239;32;20125;-71
2021/06/27 06:51:10;;;;;;;41.83;30.73;;;;;;;;;;4410108;32;20739;-71
2021/06/27 06:53:35;;;;;;;35.30;28.47;;;;;;;;;;4420718;32;20256;-71
2021/06/27 06:56:01;;;;;;;39.47;30.15;;;;;;;;;;4421077;32;20698;-70
2021/06/27 06:58:29;;;;;;;36.20;26.27;;;;;;;;;;4433902;32;20216;-70
2021/06/27 07:00:55;;;;;;;33.22;26.02;;;;;;;;;;4422258;32;20157;-71
2021/06/27 07:03:21;;;;;;;36.47;27.58;;;;;;;;;;4437836;32;20153;-71
2021/06/27 07:05:46;;;;;;;33.35;25.55;;;;;;;;;;4437500;32;20194;-71
2021/06/27 07:08:11;;;;;;;35.05;24.73;;;;;;;;;;4422489;32;20197;-70
2021/06/27 07:10:36;;;;;;;30.40;24.35;;;;;;;;;;4438292;32;20160;-71
2021/06/27 07:13:01;;;;;;;29.48;22.75;;;;;;;;;;4437628;32;20148;-71
2021/06/27 07:15:27;;;;;;;32.25;26.30;;;;;;;;;;4437855;32;20198;-71
2021/06/27 07:17:52;;;;;;;28.20;22.98;;;;;;;;;;4435795;32;20168;-71
2021/06/27 07:20:17;;;;;;;29.17;23.40;;;;;;;;;;4437421;32;20137;-71
2021/06/27 07:22:42;;;;;;;27.37;21.90;;;;;;;;;;4423102;32;20179;-71
2021/06/27 07:25:08;;;;;;;29.20;22.25;;;;;;;;;;4422389;32;20256;-71
2021/06/27 07:27:34;;;;;;;27.73;23.42;;;;;;;;;;4435759;32;20241;-72
2021/06/27 07:29:59;;;;;;;26.27;20.70;;;;;;;;;;4434632;32;20137;-70
2021/06/27 07:32:25;;;;;;;27.33;21.40;;;;;;;;;;4435511;32;20125;-71
2021/06/27 07:34:50;;;;;;;30.37;21.75;;;;;;;;;;4435754;32;20193;-71
2021/06/27 07:37:15;;;;;;;25.50;19.92;;;;;;;;;;4437386;32;20165;-72
2021/06/27 07:39:40;;;;;;;27.48;23.00;;;;;;;;;;4435687;32;20145;-72
2021/06/27 07:42:06;;;;;;;24.83;21.33;;;;;;;;;;4435808;32;20184;-72
2021/06/27 07:44:31;;;;;;;26.85;20.90;;;;;;;;;;4437131;32;20404;-72
2021/06/27 07:46:56;;;;;;;26.43;20.17;;;;;;;;;;4435377;32;20129;-72
2021/06/27 07:49:21;;;;;;;27.83;21.70;;;;;;;;;;4436816;32;20600;-71
2021/06/27 07:51:46;;;;;;;27.25;20.70;;;;;;;;;;4437312;32;20152;-72
2021/06/27 07:54:11;;;;;;;27.55;22.90;;;;;;;;;;4436828;32;20153;-73
2021/06/27 07:56:37;;;;;;;28.27;22.87;;;;;;;;;;4436094;32;20141;-72
2021/06/27 07:59:02;;;;;;;28.45;20.70;;;;;;;;;;4422094;32;20318;-72
2021/06/27 08:01:27;;;;;;;27.15;20.75;;;;;;;;;;4389911;32;20640;-72
2021/06/27 08:03:52;;;;;;;25.48;19.50;;;;;;;;;;4429676;32;20228;-73
2021/06/27 08:06:18;;;;;;;27.13;21.12;;;;;;;;;;4420134;32;20210;-71
2021/06/27 08:08:43;;;;;;;27.80;22.50;;;;;;;;;;4428767;32;20609;-72
2021/06/27 08:11:09;;;;;;;25.97;20.27;;;;;;;;;;4432837;32;20166;-72
2021/06/27 08:13:34;;;;;;;26.77;20.70;;;;;;;;;;4416067;32;20753;-72
2021/06/27 08:15:59;;;;;;;25.23;20.83;;;;;;;;;;4427780;32;20212;-72
2021/06/27 08:18:24;;;;;;;27.25;20.27;;;;;;;;;;4425423;32;20248;-72
2021/06/27 08:20:50;;;;;;;27.20;21.73;;;;;;;;;;4419587;32;20252;-72
2021/06/27 08:23:15;;;;;;;25.70;20.70;;;;;;;;;;4421163;32;20257;-72
2021/06/27 08:25:40;;;;;;;25.90;20.50;;;;;;;;;;4428929;32;20138;-72
2021/06/27 08:28:05;;;;;;;26.75;21.73;;;;;;;;;;4405810;32;20702;-72
2021/06/27 08:30:31;;;;;;;26.05;21.00;;;;;;;;;;4421560;32;20162;-71
2021/06/27 08:32:56;;;;;;;26.67;21.73;;;;;;;;;;4428812;32;20563;-72
2021/06/27 08:35:22;;;;;;;26.37;21.23;;;;;;;;;;4422285;32;20225;-72
2021/06/27 08:37:47;;;;;;;25.50;19.45;;;;;;;;;;4409980;32;20333;-71
2021/06/27 08:40:14;;;;;;;26.05;21.02;;;;;;;;;;4425116;32;20207;-72
2021/06/27 08:42:39;;;;;;;25.77;21.05;;;;;;;;;;4436264;32;20140;-72
2021/06/27 08:45:05;;;;;;;24.75;20.73;;;;;;;;;;4437345;32;20129;-72
2021/06/27 08:47:30;;;;;;;23.83;20.62;;;;;;;;;;4425344;32;20244;-73
2021/06/27 08:49:56;;;;;;;25.30;21.62;;;;;;;;;;4438034;32;20156;-72
2021/06/27 08:52:22;;;;;;;25.50;21.50;;;;;;;;;;4430732;32;20256;-72
2021/06/27 08:54:48;;;;;;;26.25;22.25;;;;;;;;;;4425815;32;20164;-72
2021/06/27 08:57:14;;;;;;;25.98;20.20;;;;;;;;;;4439517;32;20160;-73
2021/06/27 08:59:39;;;;;;;26.35;20.20;;;;;;;;;;4438003;32;20129;-72
2021/06/27 09:02:05;;;;;;;25.67;20.60;;;;;;;;;;4440022;32;20197;-71
2021/06/27 09:04:33;;;;;;;25.85;21.35;;;;;;;;;;4440009;32;20160;-72
2021/06/27 09:07:18;;;;;;;26.65;20.88;;;;;;;;;;4419844;32;20630;-72
2021/06/27 09:09:43;;;;;;;24.45;19.15;;;;;;;;;;4426172;32;20162;-72
2021/06/27 09:12:09;;;;;;;27.13;21.12;;;;;;;;;;4422323;32;20163;-72
2021/06/27 09:14:36;;;;;;;26.70;21.33;;;;;;;;;;4423084;32;20226;-74
2021/06/27 09:17:07;;;;;;;24.67;19.65;;;;;;;;;;4422590;32;20705;-72
2021/06/27 09:19:56;;;;;;;24.63;20.70;;;;;;;;;;4422647;32;20122;-71
2021/06/27 09:22:21;;;;;;;25.23;20.33;;;;;;;;;;4423177;32;20125;-71
2021/06/27 09:24:47;;;;;;;27.98;20.80;;;;;;;;;;4421518;32;20172;-72
2021/06/27 09:27:16;;;;;;;24.58;21.30;;;;;;;;;;4425980;32;20770;-72
2021/06/27 09:29:41;;;;;;;23.85;19.80;;;;;;;;;;4421908;32;20749;-72
2021/06/27 09:32:15;;;;;;;22.42;18.30;;;;;;;;;;4422726;32;20153;-72
2021/06/27 09:34:42;;;;;;;24.48;21.70;;;;;;;;;;4424611;32;20270;-72
2021/06/27 09:37:07;;;;;;;26.73;20.60;;;;;;;;;;4437431;32;20212;-71
2021/06/27 09:39:33;;;;;;;24.70;19.65;;;;;;;;;;4438073;32;20213;-72
2021/06/27 09:42:00;;;;;;;21.15;18.40;;;;;;;;;;4437726;32;20134;-72
2021/06/27 09:44:25;;;;;;;20.42;18.15;;;;;;;;;;4424250;32;20481;-72
2021/06/27 09:46:52;;;;;;;23.87;19.40;;;;;;;;;;4423224;32;20272;-72
2021/06/27 09:49:38;;;;;;;23.65;19.08;;;;;;;;;;4438724;32;20226;-72
2021/06/27 09:52:07;;;;;;;20.42;17.62;;;;;;;;;;4423853;32;20161;-72
2021/06/27 09:54:33;;;;;;;19.62;17.23;;;;;;;;;;4438413;32;20129;-72
2021/06/27 09:56:58;;;;;;;20.10;17.70;;;;;;;;;;4439033;32;20190;-72
2021/06/27 09:59:36;;;;;;;22.23;18.75;;;;;;;;;;4437689;32;20134;-72
2021/06/27 10:02:02;;;;;;;19.60;16.62;;;;;;;;;;4439741;32;20195;-71
2021/06/27 10:04:28;;;;;;;21.48;19.08;;;;;;;;;;4423329;32;20184;-72
2021/06/27 10:06:54;;;;;;;18.35;16.25;;;;;;;;;;4437102;32;20177;-71
2021/06/27 10:09:21;;;;;;;19.37;15.38;;;;;;;;;;4438096;32;20182;-72
2021/06/27 10:11:54;;;;;;;18.37;16.35;;;;;;;;;;4424161;32;20214;-72
2021/06/27 10:14:19;;;;;;;17.83;15.40;;;;;;;;;;4437163;32;20155;-71
2021/06/27 10:16:44;;;;;;;18.70;15.35;;;;;;;;;;4437348;32;20273;-72
2021/06/27 10:19:10;;;;;;;18.75;16.08;;;;;;;;;;4438342;32;20217;-71
2021/06/27 10:21:35;;;;;;;18.62;16.25;;;;;;;;;;4437721;32;20178;-72
2021/06/27 10:24:00;;;;;;;16.83;15.07;;;;;;;;;;4437948;32;20129;-71
2021/06/27 10:26:27;;;;;;;17.52;15.68;;;;;;;;;;4422864;32;20157;-71
2021/06/27 10:28:53;;;;;;;15.43;13.77;;;;;;;;;;4422991;32;20559;-71
2021/06/27 10:31:19;;;;;;;17.27;13.80;;;;;;;;;;4436803;32;20208;-72
2021/06/27 10:33:45;;;;;;;16.55;14.80;;;;;;;;;;4436910;32;20472;-71
2021/06/27 10:36:11;;;;;;;17.05;14.27;;;;;;;;;;4424395;32;20165;-71
2021/06/27 10:38:39;;;;;;;15.45;13.85;;;;;;;;;;4422509;32;20639;-72
2021/06/27 10:41:04;;;;;;;14.95;12.63;;;;;;;;;;4438523;32;20137;-72
2021/06/27 10:43:48;;;;;;;15.18;12.25;;;;;;;;;;4438848;32;20558;-72
2021/06/27 10:46:34;;;;;;;13.60;12.10;;;;;;;;;;4438305;32;20157;-72
2021/06/27 10:48:59;;;;;;;14.35;12.80;;;;;;;;;;4437146;32;20130;-71
2021/06/27 10:51:44;;;;;;;16.90;15.02;;;;;;;;;;4437674;32;20602;-72
2021/06/27 10:54:09;;;;;;;15.65;13.75;;;;;;;;;;4436443;32;20244;-71
2021/06/27 10:56:56;;;;;;;18.12;12.57;;;;;;;;;;4422964;32;20179;-71
2021/06/27 10:59:40;;;;;;;14.95;13.32;;;;;;;;;;4436021;32;20130;-71
2021/06/27 11:02:18;;;;;;;18.62;13.90;;;;;;;;;;4421707;32;20637;-71
2021/06/27 11:04:43;;;;;;;18.02;15.73;;;;;;;;;;4435888;32;20573;-72
2021/06/27 11:07:28;;;;;;;17.25;14.63;;;;;;;;;;4435710;32;20150;-72
2021/06/27 11:10:14;;;;;;;18.70;15.00;;;;;;;;;;4436066;32;20161;-72
2021/06/27 11:12:54;;;;;;;16.08;14.38;;;;;;;;;;4423183;32;20165;-72
2021/06/27 11:15:19;;;;;;;14.43;12.93;;;;;;;;;;4422260;32;20207;-72
2021/06/27 11:17:55;;;;;;;18.62;14.23;;;;;;;;;;4435551;32;20480;-72
2021/06/27 11:20:20;;;;;;;16.08;14.27;;;;;;;;;;4421912;32;20165;-72
2021/06/27 11:22:56;;;;;;;15.80;14.20;;;;;;;;;;4423733;32;20582;-72
2021/06/27 11:25:34;;;;;;;18.58;14.82;;;;;;;;;;4437984;32;20147;-72
2021/06/27 11:28:19;;;;;;;16.10;13.95;;;;;;;;;;4421656;32;20512;-72
2021/06/27 11:30:50;;;;;;;15.32;12.40;;;;;;;;;;4435724;32;20198;-72
2021/06/27 11:33:17;;;;;;;17.45;15.85;;;;;;;;;;4436049;32;20177;-72
2021/06/27 11:35:47;;;;;;;11.73;10.52;;;;;;;;;;4437915;32;20450;-72
2021/06/27 11:38:31;;;;;;;13.55;11.35;;;;;;;;;;4436783;32;20192;-72
2021/06/27 11:40:56;;;;;;;15.15;13.05;;;;;;;;;;4437881;32;20656;-73
2021/06/27 11:43:41;;;;;;;12.20;10.90;;;;;;;;;;4435426;32;20177;-73
2021/06/27 11:46:23;;;;;;;7.28;6.57;;;;;;;;;;4422422;32;20238;-73
2021/06/27 11:48:48;;;;;;;6.12;4.75;;;;;;;;;;4437824;32;20130;-73
2021/06/27 11:51:14;;;;;;;12.10;11.00;;;;;;;;;;4435714;32;20186;-73
2021/06/27 11:53:39;;;;;;;14.57;13.07;;;;;;;;;;4436770;32;20156;-72
2021/06/27 11:56:04;;;;;;;12.63;11.43;;;;;;;;;;4435336;32;20225;-72
2021/06/27 11:58:30;;;;;;;13.37;10.90;;;;;;;;;;4422446;32;20861;-72
2021/06/27 12:00:55;;;;;;;13.02;11.07;;;;;;;;;;4437580;32;20240;-72
2021/06/27 12:03:22;;;;;;;13.50;12.20;;;;;;;;;;4436166;32;20586;-72
2021/06/27 12:05:51;;;;;;;13.20;11.85;;;;;;;;;;4437126;32;20631;-72
2021/06/27 12:08:16;;;;;;;17.73;14.87;;;;;;;;;;4435355;32;20149;-72
2021/06/27 12:10:41;;;;;;;12.48;11.18;;;;;;;;;;4435703;32;20480;-72
2021/06/27 12:13:08;;;;;;;14.38;11.82;;;;;;;;;;4421516;32;20165;-72
2021/06/27 12:15:33;;;;;;;14.18;12.02;;;;;;;;;;4436321;32;20193;-72
2021/06/27 12:18:09;;;;;;;13.13;11.77;;;;;;;;;;4435173;32;20148;-72
2021/06/27 12:20:37;;;;;;;11.07;9.98;;;;;;;;;;4434991;32;20240;-73
2021/06/27 12:23:02;;;;;;;12.07;10.82;;;;;;;;;;4434966;32;20169;-73
2021/06/27 12:25:35;;;;;;;13.25;11.07;;;;;;;;;;4421242;32;20153;-72
2021/06/27 12:28:02;;;;;;;12.00;8.18;;;;;;;;;;4436593;32;20156;-71
2021/06/27 12:30:40;;;;;;;10.32;7.97;;;;;;;;;;4420855;32;20172;-72
2021/06/27 12:33:06;;;;;;;6.30;5.70;;;;;;;;;;4434998;32;20126;-72
2021/06/27 12:35:32;;;;;;;4.90;4.40;;;;;;;;;;4436542;32;20524;-72
2021/06/27 12:38:01;;;;;;;5.87;4.93;;;;;;;;;;4420995;32;20237;-72
2021/06/27 12:40:27;;;;;;;4.78;4.37;;;;;;;;;;4434609;32;20125;-72
2021/06/27 12:42:52;;;;;;;5.30;4.75;;;;;;;;;;4435011;32;20165;-72
2021/06/27 12:45:19;;;;;;;4.40;4.00;;;;;;;;;;4435995;32;20130;-72
2021/06/27 12:47:44;;;;;;;5.62;4.03;;;;;;;;;;4421243;32;20555;-71
2021/06/27 12:50:10;;;;;;;4.50;4.10;;;;;;;;;;4436577;32;20190;-72
2021/06/27 12:52:35;;;;;;;4.05;3.75;;;;;;;;;;4434664;32;20174;-72
2021/06/27 12:55:00;;;;;;;4.20;3.80;;;;;;;;;;4436321;32;20183;-73
2021/06/27 12:57:26;;;;;;;4.70;3.70;;;;;;;;;;4435678;32;20237;-72
2021/06/27 12:59:51;;;;;;;3.85;3.45;;;;;;;;;;4435232;32;20149;-73
2021/06/27 13:02:31;;;;;;;5.60;3.97;;;;;;;;;;4421950;32;20161;-73
2021/06/27 13:04:57;;;;;;;3.83;3.53;;;;;;;;;;4434829;32;20243;-72
2021/06/27 13:07:24;;;;;;;3.53;3.20;;;;;;;;;;4434774;32;20211;-72
2021/06/27 13:10:02;;;;;;;4.12;3.40;;;;;;;;;;4434784;32;20141;-72
2021/06/27 13:12:37;;;;;;;3.92;3.62;;;;;;;;;;4435052;32;20220;-71
2021/06/27 13:15:13;;;;;;;5.03;3.85;;;;;;;;;;4422234;32;20519;-71
2021/06/27 13:17:47;;;;;;;4.65;3.72;;;;;;;;;;4436606;32;20543;-72
2021/06/27 13:20:14;;;;;;;3.75;3.20;;;;;;;;;;4422634;32;20253;-72
2021/06/27 13:22:53;;;;;;;3.80;3.05;;;;;;;;;;4435393;32;20149;-72
2021/06/27 13:25:28;;;;;;;3.70;3.28;;;;;;;;;;4435793;32;20502;-71
2021/06/27 13:27:53;;;;;;;3.30;3.00;;;;;;;;;;4435473;32;20144;-72
2021/06/27 13:30:18;;;;;;;4.78;2.53;;;;;;;;;;4420861;32;20161;-72
2021/06/27 13:32:43;;;;;;;3.27;2.97;;;;;;;;;;4439484;32;20130;-72
2021/06/27 13:35:28;;;;;;;3.20;2.90;;;;;;;;;;4425611;32;20251;-72
2021/06/27 13:37:53;;;;;;;3.40;2.60;;;;;;;;;;4424272;32;20720;-71
2021/06/27 13:40:18;;;;;;;2.70;2.50;;;;;;;;;;4438846;32;20610;-71
2021/06/27 13:42:43;;;;;;;3.50;3.20;;;;;;;;;;4439674;32;20233;-71
2021/06/27 13:45:09;;;;;;;3.80;3.40;;;;;;;;;;4437989;32;20561;-72
2021/06/27 13:47:34;;;;;;;3.70;3.37;;;;;;;;;;4438189;32;20232;-73
2021/06/27 13:49:59;;;;;;;4.30;3.37;;;;;;;;;;4437540;32;20152;-72
2021/06/27 13:52:24;;;;;;;3.28;3.00;;;;;;;;;;4424200;32;20570;-72
2021/06/27 13:54:49;;;;;;;4.03;3.70;;;;;;;;;;4438215;32;20130;-72
2021/06/27 13:57:15;;;;;;;3.67;2.78;;;;;;;;;;4437617;32;20321;-71
2021/06/27 13:59:40;;;;;;;2.53;2.33;;;;;;;;;;4424932;32;20561;-71
2021/06/27 14:02:05;;;;;;;2.62;2.42;;;;;;;;;;4423277;32;20276;-71
2021/06/27 14:04:30;;;;;;;4.55;3.00;;;;;;;;;;4438865;32;20183;-71
2021/06/27 14:06:56;;;;;;;3.72;3.42;;;;;;;;;;4438968;32;20475;-73
2021/06/27 14:09:24;;;;;;;3.90;2.50;;;;;;;;;;4438885;32;20466;-72
2021/06/27 14:11:50;;;;;;;5.12;2.92;;;;;;;;;;4435623;32;20232;-72
2021/06/27 14:14:15;;;;;;;3.58;3.08;;;;;;;;;;4436753;32;20149;-72
2021/06/27 14:16:45;;;;;;;3.50;3.20;;;;;;;;;;4436577;32;20130;-72
2021/06/27 14:19:10;;;;;;;4.05;3.12;;;;;;;;;;4438136;32;20142;-72